Time;durP1;ratioP1;P1;durP2;ratioP2;P2;SDS_P1;SDS_P2;PMS_P1;PMS_P2;Temp;Humidity;BMP_temperature;BMP_pressure;BME280_temperature;BME280_humidity;BME280_pressure;Samples;Min_cycle;Max_cycle;Signal;HPM_P1;HPM_P2
2023/06/19 00:02:08;;;;;;;15.60;14.10;;;;;;;18.73;75.56;100832.66;4987790;28;20426;-71
2023/06/19 00:04:37;;;;;;;15.73;14.33;;;;;;;18.71;75.14;100834.81;4984278;28;20946;-71
2023/06/19 00:07:06;;;;;;;15.83;14.50;;;;;;;18.79;75.20;100832.44;4985509;28;20559;-70
2023/06/19 00:09:35;;;;;;;16.50;14.77;;;;;;;18.91;75.05;100832.31;4979849;28;20434;-71
2023/06/19 00:12:05;;;;;;;15.50;14.20;;;;;;;18.93;75.21;100830.13;4985875;28;20470;-71
2023/06/19 00:14:35;;;;;;;15.27;13.83;;;;;;;18.90;74.97;100827.91;4986294;28;20410;-70
2023/06/19 00:17:06;;;;;;;15.23;13.93;;;;;;;18.87;75.11;100829.25;4987076;28;20428;-71
2023/06/19 00:19:36;;;;;;;15.03;13.73;;;;;;;18.92;74.80;100825.75;4985207;28;20504;-69
2023/06/19 00:22:06;;;;;;;16.57;14.97;;;;;;;19.08;74.22;100824.78;4986539;28;20431;-71
2023/06/19 00:24:35;;;;;;;16.50;15.20;;;;;;;19.19;73.17;100829.28;4984229;28;20409;-70
2023/06/19 00:27:04;;;;;;;14.50;13.10;;;;;;;19.17;73.44;100833.38;4981998;28;20428;-69
2023/06/19 00:29:34;;;;;;;14.80;13.53;;;;;;;19.32;72.19;100837.06;4989804;28;20406;-70
2023/06/19 00:32:05;;;;;;;15.87;14.53;;;;;;;19.32;72.26;100834.34;4984770;28;20974;-70
2023/06/19 00:34:36;;;;;;;15.23;13.93;;;;;;;19.53;71.84;100840.84;4984679;28;20444;-71
2023/06/19 00:37:06;;;;;;;15.60;14.20;;;;;;;19.50;71.94;100828.50;4987767;28;20436;-71
2023/06/19 00:39:38;;;;;;;14.93;13.63;;;;;;;19.75;70.79;100829.78;4982383;28;20517;-70
2023/06/19 00:42:09;;;;;;;15.73;14.30;;;;;;;19.73;70.87;100837.44;4982699;28;20408;-70
2023/06/19 00:44:38;;;;;;;15.33;14.03;;;;;;;19.73;70.86;100831.94;4984928;28;20785;-70
2023/06/19 00:47:09;;;;;;;16.90;15.53;;;;;;;19.74;70.57;100828.94;4991559;28;20428;-69
2023/06/19 00:49:38;;;;;;;15.50;14.20;;;;;;;19.69;70.54;100828.91;5000740;28;20434;-72
2023/06/19 00:52:08;;;;;;;15.50;14.10;;;;;;;19.74;70.70;100833.59;4999664;28;20455;-71
2023/06/19 00:54:37;;;;;;;18.23;16.57;;;;;;;19.64;71.19;100828.03;4983273;28;20437;-70
2023/06/19 00:57:07;;;;;;;17.13;15.53;;;;;;;19.68;71.56;100840.16;4982927;28;20964;-72
2023/06/19 00:59:37;;;;;;;17.33;15.73;;;;;;;19.71;71.23;100834.13;4979526;28;20835;-71
2023/06/19 01:02:08;;;;;;;17.23;15.87;;;;;;;19.77;71.21;100835.81;4988180;28;20404;-71
2023/06/19 01:04:37;;;;;;;19.20;17.33;;;;;;;19.78;70.78;100837.47;4986993;28;20544;-70
2023/06/19 01:07:13;;;;;;;17.60;16.10;;;;;;;19.86;70.35;100825.97;4987825;28;20549;-70
2023/06/19 01:09:47;;;;;;;16.00;14.60;;;;;;;19.90;70.51;100822.44;4980141;28;20447;-71
2023/06/19 01:12:20;;;;;;;16.53;15.13;;;;;;;19.79;70.79;100819.91;4988160;28;20469;-69
2023/06/19 01:14:58;;;;;;;19.00;17.20;;;;;;;19.68;70.65;100816.25;4980665;28;20464;-69
2023/06/19 01:17:29;;;;;;;17.50;15.67;;;;;;;19.80;70.74;100818.84;4988809;28;20439;-71
2023/06/19 01:19:59;;;;;;;16.87;15.40;;;;;;;19.74;70.51;100817.13;4983866;28;20406;-71
2023/06/19 01:22:30;;;;;;;16.00;14.70;;;;;;;19.71;71.00;100812.16;4986628;28;20401;-70
2023/06/19 01:25:03;;;;;;;17.50;15.80;;;;;;;19.63;71.50;100820.88;4981765;28;20406;-71
2023/06/19 01:27:32;;;;;;;16.50;14.97;;;;;;;19.55;71.64;100818.66;4983206;28;20435;-70
2023/06/19 01:30:05;;;;;;;18.90;17.20;;;;;;;19.32;72.04;100814.28;4986501;28;20465;-72
2023/06/19 01:32:46;;;;;;;19.70;17.80;;;;;;;19.21;73.07;100807.91;4992761;28;20505;-71
2023/06/19 01:35:20;;;;;;;17.97;16.17;;;;;;;19.38;72.22;100808.59;4990328;28;20420;-71
2023/06/19 01:37:53;;;;;;;17.73;16.33;;;;;;;19.39;72.25;100803.94;4985679;28;20468;-71
2023/06/19 01:40:25;;;;;;;18.70;17.00;;;;;;;19.39;72.39;100802.03;4986208;28;20751;-71
2023/06/19 01:42:56;;;;;;;16.50;15.10;;;;;;;19.44;72.75;100801.28;4984623;28;20522;-70
2023/06/19 01:45:25;;;;;;;18.10;16.53;;;;;;;19.55;71.97;100797.53;4978055;28;20896;-71
2023/06/19 01:47:55;;;;;;;18.03;16.53;;;;;;;19.47;72.09;100798.00;4981053;28;20815;-69
2023/06/19 01:50:24;;;;;;;18.17;16.67;;;;;;;19.54;71.92;100790.38;4988771;28;20397;-71
2023/06/19 01:52:56;;;;;;;18.30;15.30;;;;;;;19.54;71.89;100793.13;4980650;28;20448;-69
2023/06/19 01:55:27;;;;;;;16.63;15.23;;;;;;;19.45;71.96;100787.28;4984866;28;20474;-70
2023/06/19 01:57:57;;;;;;;17.93;16.37;;;;;;;19.44;71.98;100782.88;4981445;28;20480;-70
2023/06/19 02:00:26;;;;;;;17.67;15.93;;;;;;;19.55;71.45;100792.03;4992129;28;20512;-70
2023/06/19 02:02:59;;;;;;;16.13;14.67;;;;;;;19.60;71.60;100788.50;4981749;28;20484;-70
2023/06/19 02:05:32;;;;;;;17.40;15.80;;;;;;;19.75;70.69;100791.34;4989152;28;20483;-71
2023/06/19 02:08:04;;;;;;;17.70;16.23;;;;;;;19.71;70.41;100791.03;4985347;28;20439;-70
2023/06/19 02:10:36;;;;;;;17.63;16.23;;;;;;;19.61;71.22;100781.88;4986492;28;20415;-70
2023/06/19 02:13:05;;;;;;;16.20;14.90;;;;;;;19.56;71.22;100787.38;4986161;28;21035;-70
2023/06/19 02:15:34;;;;;;;17.57;16.17;;;;;;;19.57;71.19;100783.50;4989867;28;20468;-69
2023/06/19 02:18:05;;;;;;;17.90;16.20;;;;;;;19.61;70.57;100773.66;4989859;28;20835;-72
2023/06/19 02:20:34;;;;;;;17.93;16.27;;;;;;;19.48;71.14;100775.78;4987803;28;20845;-68
2023/06/19 02:23:04;;;;;;;17.30;15.73;;;;;;;19.37;71.69;100764.94;4985566;28;20946;-70
2023/06/19 02:25:35;;;;;;;17.63;15.93;;;;;;;19.37;71.67;100767.69;4986990;28;20491;-70
2023/06/19 02:28:04;;;;;;;17.33;15.83;;;;;;;19.39;71.39;100765.53;4990364;28;20440;-69
2023/06/19 02:30:33;;;;;;;18.90;17.10;;;;;;;19.45;71.03;100768.09;4988904;28;20424;-69
2023/06/19 02:33:03;;;;;;;16.83;15.13;;;;;;;19.67;70.89;100767.09;4994609;28;20440;-70
2023/06/19 02:35:32;;;;;;;17.80;16.20;;;;;;;19.61;70.91;100763.50;4986997;28;20454;-71
2023/06/19 02:38:01;;;;;;;19.37;17.77;;;;;;;19.51;70.97;100768.91;4984455;28;20409;-71
2023/06/19 02:40:31;;;;;;;19.47;17.60;;;;;;;19.64;70.73;100762.16;4988104;28;20429;-70
2023/06/19 02:43:00;;;;;;;17.30;15.90;;;;;;;19.83;69.73;100763.38;4979898;28;20460;-70
2023/06/19 02:45:29;;;;;;;17.33;15.67;;;;;;;19.84;69.93;100759.53;4991319;28;20501;-71
2023/06/19 02:47:58;;;;;;;19.50;17.80;;;;;;;19.66;69.63;100765.44;4986976;28;20458;-71
2023/06/19 02:50:27;;;;;;;19.70;18.00;;;;;;;19.65;69.84;100761.06;4990876;28;20488;-71
2023/06/19 02:52:56;;;;;;;16.60;15.23;;;;;;;19.66;70.61;100759.97;4985267;28;20463;-70
2023/06/19 02:55:25;;;;;;;17.57;16.13;;;;;;;19.71;69.79;100760.00;4984529;28;20434;-70
2023/06/19 02:57:55;;;;;;;17.73;16.20;;;;;;;19.91;69.06;100751.88;4987476;28;20465;-70
2023/06/19 03:00:24;;;;;;;20.40;18.50;;;;;;;19.91;68.85;100754.63;4994189;28;20499;-70
2023/06/19 03:02:54;;;;;;;19.80;17.90;;;;;;;19.92;69.17;100756.28;4983979;28;20412;-70
2023/06/19 03:05:23;;;;;;;17.60;16.20;;;;;;;19.99;68.93;100758.78;4998726;28;21002;-70
2023/06/19 03:07:52;;;;;;;19.00;17.40;;;;;;;19.91;69.10;100757.34;4984436;28;20479;-70
2023/06/19 03:10:21;;;;;;;19.60;17.90;;;;;;;19.80;68.81;100750.97;4988130;28;20448;-70
2023/06/19 03:12:50;;;;;;;19.80;18.10;;;;;;;19.96;68.66;100751.91;4989131;28;20452;-70
2023/06/19 03:15:21;;;;;;;18.83;17.23;;;;;;;19.99;67.72;100745.88;4989549;28;20485;-70
2023/06/19 03:17:51;;;;;;;18.00;16.30;;;;;;;19.91;68.34;100751.88;4988488;28;20985;-69
2023/06/19 03:20:21;;;;;;;20.43;18.70;;;;;;;19.96;68.62;100754.63;4985629;28;20413;-71
2023/06/19 03:22:56;;;;;;;17.57;16.07;;;;;;;20.16;68.18;100771.22;4985996;28;20443;-70
2023/06/19 03:25:26;;;;;;;17.27;15.60;;;;;;;20.32;67.70;100770.22;4988076;28;20870;-71
2023/06/19 03:27:55;;;;;;;18.30;16.50;;;;;;;20.43;66.95;100775.75;4989298;28;20433;-69
2023/06/19 03:30:26;;;;;;;18.30;16.80;;;;;;;20.63;66.16;100775.78;4985745;28;20846;-70
2023/06/19 03:32:55;;;;;;;17.20;15.70;;;;;;;20.90;64.59;100776.41;4981249;28;20437;-71
2023/06/19 03:35:43;;;;;;;19.00;17.43;;;;;;;21.02;64.51;100771.44;4977626;28;20425;-71
2023/06/19 03:38:21;;;;;;;17.47;15.77;;;;;;;21.54;62.08;100775.88;4981922;28;21771;-72
2023/06/19 03:40:51;;;;;;;19.33;17.63;;;;;;;22.12;59.90;100781.81;4978520;28;20552;-71
2023/06/19 03:43:20;;;;;;;17.10;15.60;;;;;;;22.05;59.65;100784.88;4988187;28;20397;-71
2023/06/19 03:45:51;;;;;;;17.33;15.87;;;;;;;21.82;60.94;100785.47;4986054;28;20438;-71
2023/06/19 03:48:20;;;;;;;17.60;15.93;;;;;;;21.84;60.67;100784.06;4984183;28;20479;-72
2023/06/19 03:50:49;;;;;;;18.43;16.77;;;;;;;22.17;59.61;100788.16;4984622;28;20439;-71
2023/06/19 03:53:18;;;;;;;19.20;17.50;;;;;;;23.76;54.63;100784.84;4988506;28;20883;-70
2023/06/19 03:55:47;;;;;;;18.53;16.83;;;;;;;24.69;51.19;100793.38;4980954;28;20852;-70
2023/06/19 03:58:16;;;;;;;17.37;15.93;;;;;;;24.40;51.40;100791.88;4982929;28;20470;-71
2023/06/19 04:00:45;;;;;;;28.67;20.30;;;;;;;23.37;54.15;100791.28;4985944;28;20507;-71
2023/06/19 04:03:16;;;;;;;19.67;17.90;;;;;;;22.63;56.64;100785.97;4982034;28;20511;-72
2023/06/19 04:05:47;;;;;;;18.47;16.90;;;;;;;21.92;58.72;100772.50;4981970;28;20456;-71
2023/06/19 04:08:16;;;;;;;18.33;16.83;;;;;;;21.45;60.24;100774.75;4987076;28;20923;-70
2023/06/19 04:10:45;;;;;;;19.93;18.00;;;;;;;21.09;61.84;100772.03;4977633;28;20449;-71
2023/06/19 04:13:15;;;;;;;18.23;16.83;;;;;;;20.91;62.50;100767.06;4984247;28;20839;-71
2023/06/19 04:15:45;;;;;;;19.63;18.00;;;;;;;20.72;64.17;100769.47;4983876;28;20949;-71
2023/06/19 04:18:20;;;;;;;17.77;16.27;;;;;;;20.63;63.26;100765.63;4982452;28;20685;-71
2023/06/19 04:20:49;;;;;;;17.80;16.30;;;;;;;20.55;64.04;100762.59;4972957;28;20474;-70
2023/06/19 04:23:18;;;;;;;18.23;16.73;;;;;;;20.49;64.57;100759.00;4983434;28;20400;-70
2023/06/19 04:25:47;;;;;;;18.63;17.10;;;;;;;20.65;63.83;100762.59;4985494;28;20459;-70
2023/06/19 04:28:16;;;;;;;18.63;17.10;;;;;;;20.68;63.88;100757.38;4985908;28;20409;-70
2023/06/19 04:30:45;;;;;;;18.57;16.97;;;;;;;20.55;64.08;100763.41;4984151;28;20443;-70
2023/06/19 04:33:14;;;;;;;19.70;17.87;;;;;;;20.53;64.55;100770.25;4981920;28;20531;-69
2023/06/19 04:35:45;;;;;;;18.30;16.70;;;;;;;20.52;64.65;100785.13;4988438;28;20509;-70
2023/06/19 04:38:14;;;;;;;19.30;17.50;;;;;;;20.73;64.47;100784.06;4982437;28;20963;-70
2023/06/19 04:40:43;;;;;;;18.50;17.00;;;;;;;20.64;64.70;100783.78;4982779;28;20438;-70
2023/06/19 04:43:12;;;;;;;19.30;17.60;;;;;;;20.72;64.41;100782.44;4984504;28;20435;-68
2023/06/19 04:45:42;;;;;;;20.00;18.20;;;;;;;20.65;64.26;100790.94;4984978;28;20405;-70
2023/06/19 04:48:11;;;;;;;19.00;17.50;;;;;;;20.60;65.33;100792.84;4987518;28;20468;-70
2023/06/19 04:50:40;;;;;;;19.93;18.13;;;;;;;20.71;65.07;100784.34;4983205;28;20417;-71
2023/06/19 04:53:11;;;;;;;19.77;18.10;;;;;;;20.67;64.43;100782.41;4984031;28;20549;-70
2023/06/19 04:55:40;;;;;;;19.17;17.30;;;;;;;20.68;64.77;100782.13;4982380;28;20488;-70
2023/06/19 04:58:09;;;;;;;18.03;16.20;;;;;;;20.71;65.56;100795.34;4982423;28;20422;-71
2023/06/19 05:00:38;;;;;;;18.87;17.17;;;;;;;20.58;65.00;100795.84;4982308;28;20453;-70
2023/06/19 05:03:07;;;;;;;20.30;18.07;;;;;;;20.52;65.59;100801.63;4981026;28;20437;-70
2023/06/19 05:05:36;;;;;;;20.80;18.13;;;;;;;20.47;65.80;100796.09;4981704;28;20429;-69
2023/06/19 05:08:05;;;;;;;20.67;19.00;;;;;;;20.57;65.91;100799.72;4984429;28;20545;-69
2023/06/19 05:10:36;;;;;;;20.20;18.60;;;;;;;20.58;65.07;100806.00;4983137;28;20496;-68
2023/06/19 05:13:05;;;;;;;22.80;19.33;;;;;;;20.51;65.61;100799.97;4986134;28;20466;-70
2023/06/19 05:15:34;;;;;;;21.73;19.63;;;;;;;20.51;66.15;100802.72;4982544;28;20500;-70
2023/06/19 05:18:03;;;;;;;23.07;20.60;;;;;;;20.57;65.45;100798.88;4985896;28;21125;-70
2023/06/19 05:20:32;;;;;;;22.70;20.70;;;;;;;20.51;65.74;100805.47;4983958;28;20941;-71
2023/06/19 05:23:01;;;;;;;21.50;19.40;;;;;;;20.48;66.10;100806.00;4983961;28;20473;-71
2023/06/19 05:25:30;;;;;;;22.77;20.50;;;;;;;20.56;65.46;100813.72;4991158;28;21030;-71
2023/06/19 05:28:01;;;;;;;25.93;21.40;;;;;;;20.63;65.39;100811.53;4990882;28;20406;-71
2023/06/19 05:30:34;;;;;;;19.90;18.03;;;;;;;20.67;65.14;100812.66;4982621;28;20428;-72
2023/06/19 05:33:04;;;;;;;21.90;20.00;;;;;;;20.58;65.75;100800.50;4988818;28;20427;-71
2023/06/19 05:35:33;;;;;;;20.27;18.57;;;;;;;20.64;65.57;100804.94;4989276;28;20438;-72
2023/06/19 05:38:01;;;;;;;22.47;20.37;;;;;;;20.69;65.45;100807.69;4992429;28;20411;-71
2023/06/19 05:40:31;;;;;;;20.40;18.67;;;;;;;20.62;65.46;100813.44;5007789;23;20500;-73
2023/06/19 05:43:02;;;;;;;21.73;19.90;;;;;;;20.65;65.38;100806.59;4987516;28;20444;-72
2023/06/19 05:45:31;;;;;;;20.33;18.43;;;;;;;20.70;65.03;100804.69;4992751;28;20703;-71
2023/06/19 05:48:00;;;;;;;21.33;19.43;;;;;;;20.70;65.38;100804.69;4971155;28;20467;-69
2023/06/19 05:50:30;;;;;;;20.10;18.40;;;;;;;20.79;64.95;100810.47;4975463;28;20417;-72
2023/06/19 05:52:59;;;;;;;21.07;19.17;;;;;;;20.89;64.49;100818.75;4976691;28;20849;-69
2023/06/19 05:55:28;;;;;;;21.07;18.97;;;;;;;21.03;64.18;100808.03;4974743;28;20453;-70
2023/06/19 05:57:57;;;;;;;20.77;19.07;;;;;;;21.19;63.65;100810.59;4972802;28;20464;-72
2023/06/19 06:00:29;;;;;;;19.83;18.03;;;;;;;21.22;63.90;100815.53;4973702;28;20417;-70
2023/06/19 06:03:00;;;;;;;20.03;18.17;;;;;;;21.08;64.66;100819.06;4970203;28;20842;-72
2023/06/19 06:05:29;;;;;;;22.00;20.00;;;;;;;21.05;65.78;100806.69;4976631;28;20427;-72
2023/06/19 06:07:59;;;;;;;22.50;20.50;;;;;;;20.98;66.27;100808.03;4973551;28;20817;-71
2023/06/19 06:10:28;;;;;;;20.27;18.47;;;;;;;21.00;66.12;100794.84;4975978;28;20426;-71
2023/06/19 06:12:57;;;;;;;22.60;20.70;;;;;;;20.96;66.77;100797.28;4975662;28;20413;-72
2023/06/19 06:15:27;;;;;;;22.47;20.50;;;;;;;20.94;66.46;100793.19;4974888;28;20437;-74
2023/06/19 06:17:57;;;;;;;22.20;20.03;;;;;;;21.14;65.44;100794.06;4974512;28;20517;-73
2023/06/19 06:20:26;;;;;;;21.87;19.97;;;;;;;21.27;64.89;100795.44;4975630;28;20442;-72
2023/06/19 06:22:55;;;;;;;22.57;20.27;;;;;;;21.36;64.28;100787.44;4972521;28;20435;-71
2023/06/19 06:25:24;;;;;;;21.87;19.90;;;;;;;21.42;64.48;100789.09;4975565;28;20437;-72
2023/06/19 06:27:53;;;;;;;21.97;19.87;;;;;;;21.55;63.40;100799.53;4975420;28;20490;-71
2023/06/19 06:30:23;;;;;;;21.10;19.20;;;;;;;21.63;63.30;100799.81;4975684;28;20431;-71
2023/06/19 06:32:54;;;;;;;22.90;20.87;;;;;;;21.72;62.58;100802.84;4973911;28;20451;-71
2023/06/19 06:35:23;;;;;;;20.77;19.00;;;;;;;21.69;62.82;100800.63;4974283;28;20490;-72
2023/06/19 06:37:52;;;;;;;22.97;20.90;;;;;;;21.75;62.30;100798.69;4975327;28;20460;-72
2023/06/19 06:40:21;;;;;;;21.17;19.37;;;;;;;21.71;63.11;100798.44;4975951;28;20533;-72
2023/06/19 06:42:53;;;;;;;22.17;20.03;;;;;;;21.74;62.86;100792.34;4977466;28;20449;-75
2023/06/19 06:45:22;;;;;;;22.20;20.40;;;;;;;21.95;62.14;100804.19;4974945;28;20526;-73
2023/06/19 06:47:55;;;;;;;22.70;20.90;;;;;;;22.06;62.16;100806.66;4976865;28;20554;-72
2023/06/19 06:50:24;;;;;;;22.03;19.70;;;;;;;22.38;61.28;100805.41;4974864;28;20747;-72
2023/06/19 06:52:54;;;;;;;21.97;20.00;;;;;;;22.41;60.48;100813.13;4974916;28;20516;-73
2023/06/19 06:55:23;;;;;;;22.37;20.17;;;;;;;22.50;59.65;100811.44;4973091;28;20517;-73
2023/06/19 06:57:52;;;;;;;21.67;19.67;;;;;;;22.37;59.38;100817.53;4974561;28;20441;-72
2023/06/19 07:00:21;;;;;;;20.23;18.70;;;;;;;22.60;59.59;100816.91;4974185;28;20509;-72
2023/06/19 07:02:51;;;;;;;23.40;21.20;;;;;;;22.79;59.23;100820.69;4973966;28;20427;-69
2023/06/19 07:05:22;;;;;;;20.40;18.60;;;;;;;22.94;58.58;100820.59;4971276;28;20466;-72
2023/06/19 07:07:50;;;;;;;22.20;20.13;;;;;;;22.98;58.13;100829.13;4972066;28;20842;-72
2023/06/19 07:10:19;;;;;;;23.30;21.20;;;;;;;23.22;57.48;100823.69;4969324;28;20481;-72
2023/06/19 07:12:49;;;;;;;21.77;19.57;;;;;;;23.31;56.86;100827.50;4972829;28;20420;-71
2023/06/19 07:15:18;;;;;;;20.53;18.60;;;;;;;23.31;56.92;100830.25;4971257;28;20986;-69
2023/06/19 07:17:48;;;;;;;22.30;20.20;;;;;;;23.53;55.86;100825.13;4972496;28;20437;-71
2023/06/19 07:20:17;;;;;;;25.40;21.13;;;;;;;23.35;56.68;100823.03;4970878;28;20412;-71
2023/06/19 07:22:48;;;;;;;22.83;20.97;;;;;;;23.33;56.53;100819.75;4973667;28;20957;-72
2023/06/19 07:25:17;;;;;;;22.13;19.90;;;;;;;23.32;56.92;100815.34;4973284;28;20514;-71
2023/06/19 07:27:46;;;;;;;23.70;21.60;;;;;;;23.26;56.49;100820.06;4973141;28;20557;-71
2023/06/19 07:30:15;;;;;;;21.27;19.57;;;;;;;23.47;56.69;100820.78;4971730;28;20441;-71
2023/06/19 07:32:45;;;;;;;21.97;20.10;;;;;;;23.72;55.59;100826.03;4973642;28;20438;-73
2023/06/19 07:35:14;;;;;;;22.30;20.20;;;;;;;23.77;55.16;100830.69;4973150;28;20819;-71
2023/06/19 07:37:43;;;;;;;20.73;19.07;;;;;;;23.50;55.33;100830.41;4973775;28;20451;-73
2023/06/19 07:40:13;;;;;;;22.27;20.20;;;;;;;23.61;55.55;100832.78;4972013;28;20870;-72
2023/06/19 07:42:42;;;;;;;21.13;19.30;;;;;;;23.95;54.87;100834.69;4975104;28;20533;-72
2023/06/19 07:45:14;;;;;;;21.70;19.90;;;;;;;24.08;54.65;100836.72;4973542;28;20497;-68
2023/06/19 07:47:44;;;;;;;23.17;21.17;;;;;;;24.13;53.88;100836.69;4970170;28;20479;-71
2023/06/19 07:50:13;;;;;;;22.00;20.20;;;;;;;24.16;54.12;100838.84;4973851;28;20485;-69
2023/06/19 07:52:43;;;;;;;19.70;18.07;;;;;;;24.16;54.75;100845.22;4974864;28;20549;-69
2023/06/19 07:55:13;;;;;;;21.43;19.63;;;;;;;24.33;53.34;100844.78;4974353;28;20521;-68
2023/06/19 07:57:42;;;;;;;19.90;18.13;;;;;;;24.32;53.85;100842.28;4970512;28;20486;-70
2023/06/19 08:00:13;;;;;;;21.97;20.13;;;;;;;24.33;53.77;100844.78;4971379;28;20530;-68
2023/06/19 08:02:42;;;;;;;21.37;19.40;;;;;;;24.30;54.11;100839.84;4974601;28;20472;-69
2023/06/19 08:05:12;;;;;;;21.67;19.97;;;;;;;24.27;53.90;100837.66;4974709;28;20419;-69
2023/06/19 08:07:41;;;;;;;22.03;20.23;;;;;;;24.13;53.53;100844.97;4972995;28;20502;-70
2023/06/19 08:10:12;;;;;;;21.13;19.03;;;;;;;23.94;54.69;100844.91;4974404;28;20486;-69
2023/06/19 08:12:43;;;;;;;21.20;19.00;;;;;;;24.10;54.53;100840.88;4970269;28;20446;-69
2023/06/19 08:15:14;;;;;;;20.97;19.17;;;;;;;24.09;54.35;100843.91;4974865;28;21012;-69
2023/06/19 08:17:43;;;;;;;20.73;18.80;;;;;;;24.25;53.85;100839.91;4970782;28;20980;-68
2023/06/19 08:20:13;;;;;;;20.83;18.83;;;;;;;24.11;53.67;100842.50;4973889;28;20438;-68
2023/06/19 08:22:42;;;;;;;22.30;20.40;;;;;;;24.15;54.31;100848.28;4971755;28;20443;-69
2023/06/19 08:25:12;;;;;;;21.37;19.63;;;;;;;24.15;54.15;100848.28;4972756;28;20489;-68
2023/06/19 08:27:41;;;;;;;22.03;20.17;;;;;;;24.38;53.41;100850.25;4970323;28;20475;-67
2023/06/19 08:30:11;;;;;;;22.37;20.10;;;;;;;24.29;53.54;100842.91;4974063;28;20521;-69
2023/06/19 08:32:40;;;;;;;20.90;19.17;;;;;;;24.45;53.57;100852.63;4972784;28;20427;-67
2023/06/19 08:35:09;;;;;;;20.20;18.40;;;;;;;24.37;53.48;100851.34;4973102;28;20463;-70
2023/06/19 08:37:38;;;;;;;20.03;18.40;;;;;;;24.36;53.57;100843.34;4973624;28;20833;-69
2023/06/19 08:40:10;;;;;;;20.00;18.10;;;;;;;24.32;53.82;100845.88;4975418;28;20475;-69
2023/06/19 08:42:42;;;;;;;20.50;18.60;;;;;;;24.46;55.24;100843.22;4976674;28;20530;-69
2023/06/19 08:45:11;;;;;;;19.83;18.23;;;;;;;24.47;54.19;100847.66;4976695;28;20481;-68
2023/06/19 08:47:42;;;;;;;20.30;18.43;;;;;;;24.43;53.33;100839.13;4972216;28;20549;-69
2023/06/19 08:50:11;;;;;;;21.23;19.53;;;;;;;24.49;53.68;100843.47;4971594;28;20427;-68
2023/06/19 08:52:40;;;;;;;23.03;19.37;;;;;;;24.66;53.49;100829.97;4975151;28;20892;-67
2023/06/19 08:55:10;;;;;;;22.03;20.20;;;;;;;24.68;53.16;100833.25;4968834;28;20889;-68
2023/06/19 08:57:42;;;;;;;21.73;19.83;;;;;;;24.53;53.49;100827.94;4968317;28;20454;-67
2023/06/19 09:00:12;;;;;;;20.80;18.93;;;;;;;24.39;53.95;100838.06;4971453;28;20431;-68
2023/06/19 09:02:42;;;;;;;20.60;18.70;;;;;;;24.36;55.13;100832.28;4969623;28;20447;-68
2023/06/19 09:05:16;;;;;;;23.00;20.80;;;;;;;24.06;55.95;100827.94;4971311;28;20830;-67
2023/06/19 09:07:46;;;;;;;22.10;19.90;;;;;;;24.02;56.64;100832.38;4968839;28;20480;-68
2023/06/19 09:10:19;;;;;;;21.27;19.57;;;;;;;24.13;55.78;100833.91;4970214;28;20776;-69
2023/06/19 09:13:00;;;;;;;21.23;19.37;;;;;;;24.05;56.27;100837.34;4973923;28;20477;-68
2023/06/19 09:15:30;;;;;;;23.30;20.97;;;;;;;24.06;55.79;100836.22;4976292;28;20573;-68
2023/06/19 09:18:08;;;;;;;21.27;19.47;;;;;;;24.15;56.09;100848.28;4973380;28;20454;-69
2023/06/19 09:20:43;;;;;;;19.80;18.17;;;;;;;24.19;55.76;100846.59;4972056;28;20462;-71
2023/06/19 09:23:13;;;;;;;21.40;19.30;;;;;;;24.45;55.13;100850.69;4974067;28;20484;-67
2023/06/19 09:25:47;;;;;;;21.73;19.67;;;;;;;24.71;54.42;100850.38;4970720;28;20784;-69
2023/06/19 09:28:21;;;;;;;20.33;18.63;;;;;;;24.85;53.61;100851.28;4973890;28;20937;-69
2023/06/19 09:30:55;;;;;;;22.30;20.03;;;;;;;24.96;53.35;100845.34;4973045;28;20829;-68
2023/06/19 09:33:24;;;;;;;22.10;20.20;;;;;;;25.13;53.10;100836.50;4969563;28;20521;-70
2023/06/19 09:35:56;;;;;;;19.70;18.03;;;;;;;25.14;53.34;100843.69;4974511;28;20977;-70
2023/06/19 09:38:27;;;;;;;20.67;18.67;;;;;;;25.10;53.62;100842.66;4973969;28;20847;-67
2023/06/19 09:40:59;;;;;;;20.73;18.60;;;;;;;25.11;53.79;100844.31;4973328;28;20950;-69
2023/06/19 09:43:34;;;;;;;21.20;19.33;;;;;;;25.02;54.16;100843.34;4973339;28;20448;-68
2023/06/19 09:46:05;;;;;;;22.73;21.03;;;;;;;25.34;53.73;100848.91;4968978;28;20473;-68
2023/06/19 09:48:35;;;;;;;21.67;19.43;;;;;;;25.74;52.12;100846.63;4966538;28;20864;-67
2023/06/19 09:51:17;;;;;;;21.80;19.80;;;;;;;25.89;52.02;100843.56;4974904;28;20435;-66
2023/06/19 09:53:47;;;;;;;21.03;18.97;;;;;;;26.15;51.38;100846.66;4972148;28;20446;-71
2023/06/19 09:56:21;;;;;;;20.37;18.37;;;;;;;26.31;50.79;100848.06;4970816;28;20478;-69
2023/06/19 09:58:55;;;;;;;20.57;18.77;;;;;;;26.46;50.43;100844.97;4972064;28;20838;-70
2023/06/19 10:01:26;;;;;;;20.23;18.53;;;;;;;26.41;49.72;100844.25;4972673;28;20460;-70
2023/06/19 10:04:04;;;;;;;18.80;17.27;;;;;;;26.33;49.15;100838.31;4975138;28;20521;-69
2023/06/19 10:06:33;;;;;;;21.63;19.60;;;;;;;26.36;49.25;100843.22;4974709;28;20968;-70
2023/06/19 10:09:09;;;;;;;21.03;19.23;;;;;;;26.54;49.83;100833.13;4969569;28;20445;-68
2023/06/19 10:11:50;;;;;;;19.43;17.80;;;;;;;26.48;49.33;100833.56;4971789;28;20442;-68
2023/06/19 10:14:22;;;;;;;20.67;18.67;;;;;;;26.89;48.13;100817.69;4974323;28;20434;-69
2023/06/19 10:16:51;;;;;;;21.60;19.73;;;;;;;26.38;49.19;100817.97;4972960;28;20660;-68
2023/06/19 10:19:23;;;;;;;22.70;20.60;;;;;;;26.26;49.57;100821.25;4973793;28;20439;-68
2023/06/19 10:21:54;;;;;;;20.10;18.20;;;;;;;26.35;49.60;100813.84;4972704;28;20823;-71
2023/06/19 10:24:26;;;;;;;20.30;18.47;;;;;;;26.66;48.83;100810.41;4972553;28;20427;-70
2023/06/19 10:27:00;;;;;;;21.83;19.73;;;;;;;26.92;47.97;100811.50;4976285;28;20766;-69
2023/06/19 10:29:40;;;;;;;21.37;19.27;;;;;;;27.22;47.84;100796.06;4975065;28;20431;-70
2023/06/19 10:32:16;;;;;;;22.03;20.10;;;;;;;27.33;47.63;100802.19;4973429;28;20431;-68
2023/06/19 10:34:48;;;;;;;21.03;19.33;;;;;;;27.40;46.92;100805.34;4975223;28;20502;-69
2023/06/19 10:37:18;;;;;;;20.00;18.30;;;;;;;27.29;46.76;100798.41;4977101;28;20474;-68
2023/06/19 10:39:47;;;;;;;18.33;16.83;;;;;;;27.15;46.91;100790.97;4980279;28;20517;-69
2023/06/19 10:42:16;;;;;;;22.07;19.87;;;;;;;27.06;47.48;100792.81;4978354;28;20502;-70
2023/06/19 10:44:46;;;;;;;19.57;17.87;;;;;;;27.06;47.92;100781.72;4974482;28;20442;-68
2023/06/19 10:47:16;;;;;;;20.63;19.03;;;;;;;27.18;47.58;100775.59;4967385;28;20463;-69
2023/06/19 10:49:46;;;;;;;20.10;18.40;;;;;;;27.01;48.20;100781.03;4975629;28;20434;-69
2023/06/19 10:52:15;;;;;;;20.37;18.70;;;;;;;27.21;47.03;100769.41;4974349;28;20458;-67
2023/06/19 10:54:44;;;;;;;20.87;18.97;;;;;;;27.17;47.51;100762.84;4972563;28;20936;-70
2023/06/19 10:57:14;;;;;;;19.60;17.67;;;;;;;27.10;48.13;100768.88;4970290;28;20528;-66
2023/06/19 10:59:43;;;;;;;18.33;16.93;;;;;;;27.23;47.94;100756.84;4973412;28;20458;-68
2023/06/19 11:02:14;;;;;;;18.53;17.10;;;;;;;27.04;47.72;100759.00;4972836;28;20442;-68
2023/06/19 11:04:43;;;;;;;19.63;17.23;;;;;;;27.09;47.67;100761.66;4971585;28;20956;-72
2023/06/19 11:07:13;;;;;;;19.53;17.80;;;;;;;27.19;47.08;100755.84;4971952;28;20446;-67
2023/06/19 11:09:42;;;;;;;20.00;18.33;;;;;;;27.02;47.94;100758.50;4972791;28;20464;-69
2023/06/19 11:12:19;;;;;;;20.20;18.57;;;;;;;27.32;47.26;100745.78;4973494;28;20451;-67
2023/06/19 11:14:49;;;;;;;19.90;18.30;;;;;;;27.34;47.18;100754.66;4977010;28;20442;-69
2023/06/19 11:17:21;;;;;;;19.53;17.93;;;;;;;27.71;46.48;100752.56;4975152;28;20449;-69
2023/06/19 11:19:51;;;;;;;19.63;18.03;;;;;;;27.61;46.03;100762.00;4972838;28;20439;-69
2023/06/19 11:22:20;;;;;;;19.07;17.27;;;;;;;27.74;46.61;100766.66;4973499;28;20423;-70
2023/06/19 11:24:50;;;;;;;17.33;15.80;;;;;;;27.66;45.34;100759.91;4971839;28;20433;-70